METAR stanice u blizini

 

LYBE - Beograd / Surčin, Srbija
Ažurirano: 22/11/2019 21:00
Vedro
Vedro
 Pravac vetra IJI
Vetar: IJI 22 km/h
Temperatura: 5°C
Osećaj hladnoće: 1°C
Tačka rose: 0°C
Vlažnost: 70%
Pritisak: 1019 hPa
Pregled: Vedro
Vidljivost: greater than 10 km
2019/11/22 20:00 LYBE 222000Z 12012KT CAVOK 05/00 Q1019 NOSIG
LYBT - Beograd / Batajnica, Srbija
Ažurirano: 22/11/2019 21:00
Vedro
Vedro
 Pravac vetra I
Vetar: I 15 km/h
Temperatura: 4°C
Osećaj hladnoće: 1°C
Tačka rose: 0°C
Vlažnost: 75%
Pritisak: 1019 hPa
Pregled: Vedro
Vidljivost: greater than 10 km
2019/11/22 20:00 LYBT 222000Z 09008KT CAVOK 04/00 Q1019 NOSIG
LYVR - Vršac, Srbija
Ažurirano: 22/11/2019 21:00
Vedro
Vedro
 Pravac vetra JI
Vetar: JI 52 km/h, Maks.: 85 km/h
Temperatura: 7°C
Osećaj hladnoće: 2°C
Tačka rose: -1°C
Vlažnost: 57%
Pritisak: 1018 hPa
Pregled: Vedro
Vidljivost: greater than 10 km
2019/11/22 20:00 LYVR 222000Z AUTO 13028G46KT CAVOK 07/M01 Q1018
 
LYKV - Lađevci, Srbija
Ažurirano: 22/11/2019 21:00
Mostly Cloudy
Mostly Cloudy
 Pravac vetra JI
Vetar: JI 20 km/h
Temperatura: 5°C
Osećaj hladnoće: 1°C
Tačka rose: 3°C
Vlažnost: 87%
Pritisak: 1020 hPa
Oblaci: Mostly Cloudy
Vidljivost: 10 km
Cloud details: Mostly Cloudy 701 m
2019/11/22 20:00 LYKV 222000Z 14011KT 9999 BKN023 05/03 Q1020 NOSIG
LYNI - Niš, Srbija
Ažurirano: 22/11/2019 21:00
Mostly Cloudy
Mostly Cloudy
 Pravac vetra SI
Vetar: SI 11 km/h
Temperatura: 6°C
Osećaj hladnoće: 4°C
Tačka rose: 1°C
Vlažnost: 71%
Pritisak: 1020 hPa
Oblaci: Mostly Cloudy
Vidljivost: 10 km
Cloud details: Mostly Cloudy 1433 m
2019/11/22 20:00 LYNI 222000Z 04006KT 9999 BKN047 06/01 Q1020 NOSIG
BKPR - Priština, Srbija
Ažurirano: 22/11/2019 21:00
Mostly Cloudy
Mostly Cloudy
 Pravac vetra S
Vetar: S 17 km/h
Temperatura: 6°C
Osećaj hladnoće: 3°C
Tačka rose: 3°C
Vlažnost: 81%
Pritisak: 1018 hPa
Oblaci: Mostly Cloudy
Vidljivost: 10 km
Cloud details: Partly Cloudy 610 m
Mostly Cloudy 1219 m
2019/11/22 20:00 BKPR 222000Z 36009KT 9999 SCT020 BKN040 06/03 Q1018 NOSIG RMK 17010095
 
LHPP - Pecs / Pogany, Hungary
Ažurirano: 22/11/2019 18:15
NOT Current
Few Clouds
Few Clouds
 Pravac vetra I
Vetar: I 11 km/h
Temperatura: 8°C
Osećaj hladnoće: 6°C
Tačka rose: 6°C
Vlažnost: 87%
Pritisak: 1016 hPa
Oblaci: Few Clouds
Vidljivost: 10 km
Cloud details: Few Clouds 396 m
2019/11/22 17:15 LHPP 221715Z 10006KT 9999 FEW013 08/06 Q1016
LHUD - Szeged, Hungary
Ažurirano: 04/07/2019 01:45
NOT Current
Vedro
Vedro
 Pravac vetra S
Vetar: S 7 km/h
Temperatura: 18°C
Tačka rose: 13°C
Vlažnost: 73%
Pritisak: 1019 hPa
Pregled: Vedro
Vidljivost: greater than 10 km
2019/07/03 23:45 LHUD 032345Z 35004KT CAVOK 18/13 Q1019
LRTR - Timisoara, Romania
Ažurirano: 22/11/2019 21:00
Partly Cloudy
Partly Cloudy
 Pravac vetra IJI
Vetar: IJI 6 km/h
Temperatura: 6°C
Tačka rose: 3°C
Vlažnost: 81%
Pritisak: 1019 hPa
Oblaci: Partly Cloudy
Vidljivost: 10 km
Cloud details: Partly Cloudy 1463 m
2019/11/22 20:00 LRTR 222000Z 11003KT 080V150 9999 SCT048 06/03 Q1019
 
LRCV - Craiova, Romania
Ažurirano: 22/11/2019 21:00
Light snow, Mist, Oblačno
Light snow, Mist, Oblačno
 Pravac vetra ISI
Vetar: ISI 26 km/h
Temperatura: 0°C
Osećaj hladnoće: -6°C
Tačka rose: 0°C
Vlažnost: 100%
Pritisak: 1025 hPa
Pregled: Light snow, Mist
Oblaci: Oblačno
Vidljivost: 3 km
Cloud details: Partly Cloudy 91 m
Oblačno 213 m
2019/11/22 20:00 LRCV 222000Z 07014KT 3000 -SN BR SCT003 OVC007 00/M00 Q1025 R09/29//95
LBSF - Sofia, Bulgaria
Ažurirano: 22/11/2019 21:00
Oblačno
Oblačno
 Pravac vetra JI
Vetar: JI 7 km/h
Temperatura: 5°C
Osećaj hladnoće: 3°C
Tačka rose: 4°C
Vlažnost: 93%
Pritisak: 1020 hPa
Oblaci: Oblačno
Vidljivost: 10 km
Cloud details: Partly Cloudy 549 m
Oblačno 671 m
2019/11/22 20:00 LBSF 222000Z 13004KT 9999 SCT018 OVC022 05/04 Q1020 NOSIG
LWSK - Skoplje, Makedonija
Ažurirano: 22/11/2019 21:30
Oblačno
Oblačno
 Pravac vetra SI
Vetar: SI 7 km/h
Temperatura: 10°C
Osećaj hladnoće: 9°C
Tačka rose: 8°C
Vlažnost: 88%
Pritisak: 1018 hPa
Oblaci: Oblačno
Vidljivost: 10 km
Cloud details: Partly Cloudy 610 m
Oblačno 914 m
2019/11/22 20:30 LWSK 222030Z 04004KT 9999 SCT020 OVC030 10/08 Q1018 NOSIG
 
LYPG - Podgorica, Crna Gora
Ažurirano: 22/11/2019 21:00
Vedro
Vedro
 Pravac vetra S
Vetar: S 9 km/h
Temperatura: 9°C
Osećaj hladnoće: 7°C
Tačka rose: 7°C
Vlažnost: 87%
Pritisak: 1017 hPa
Pregled: Vedro
Vidljivost: greater than 10 km
2019/11/22 20:00 LYPG 222000Z 35005KT CAVOK 09/07 Q1017 NOSIG
LQSA - Sarajevo, Bosna i Hercegovina
Ažurirano: 22/11/2019 21:00
Partly Cloudy
Partly Cloudy
 Pravac vetra calm
Vetar: Tišina
Temperatura: 2°C
Tačka rose: 1°C
Vlažnost: 93%
Pritisak: 1016 hPa
Oblaci: Partly Cloudy
Vidljivost: 6 km
2019/11/22 20:00 LQSA 222000Z 00000KT 6000 NSC 02/01 Q1016
LDOS - Osijek, Hrvatksa
Ažurirano: 22/11/2019 21:00
Vedro
Vedro
 Pravac vetra I
Vetar: I 13 km/h
Temperatura: 4°C
Osećaj hladnoće: 1°C
Tačka rose: 3°C
Vlažnost: 93%
Pritisak: 1017 hPa
Pregled: Vedro
Vidljivost: greater than 10 km
2019/11/22 20:00 LDOS 222000Z 08007KT CAVOK 04/03 Q1017